Aerial Acres, California
Current Conditions -  °F | °C
As of 6:58 PM on Friday 24 Oct 2014 (Local Time) from KEDW Reporting Station
Clear Clear  
Wind Chill: 77°   Ceiling: Unl
Heat Index: 77°   Visibility: 40mi
Dew Point: 29°   Wind: 16mph
Humidity: 17%   Direction: 250°WSW
Pressure: 29.97"   Gusts: NA
Location:  34.931°N, 117.867°W
Report Text: KEDW 250158Z 25014KT 40SM CLR 25/M02 A2997 RMK AO2A SLP137 T02481016
Loading
Personal Weather Stations






























Interactive Weather Map
Tropical Storm Tracking
New forecast layout! Learn more

10-Day Weather Forecast

Advertisements
Track Severe Weather on mobile